Burrville, Tennessee
Current Conditions -  °F | °C
As of 2:53 PM on Monday 22 Dec 2014 (Local Time) from KCSV Reporting Station
Overcast Overcast  
Wind Chill: 51°   Ceiling: 1500
Heat Index: 51°   Visibility: 10mi
Dew Point: 43°   Wind: 6mph
Humidity: 74%   Direction: NA
Pressure: 29.84"   Gusts: NA
Location:  36.273°N, 84.7037°W
Report Text: KCSV 221953Z AUTO VRB05KT 10SM OVC015 11/06 A2984 RMK AO2 SLP103 T01060061
Loading
Personal Weather Stations






























Interactive Weather Map New forecast layout! Learn more

10-Day Weather Forecast

Advertisements
Track Severe Weather on mobile